Kyokuho Maru No.15 — JI3715 — position and weather

sailwx.info

Track history (hours):
 
Tides and Currents Weather Stations Pressure Air Temp Water Temp Dewpoint Dewpoint Depression Visibility Wind Speed Wind Dir Waves Ship Positions

Kyokuho Maru No.15

Last reported at 2016-Sep-29 08:03 UTC. Time now 2016-Sep-29 10:12 UTC.
Position N 35°09' E 140°27'.

Length 63 m; draft 3.4 m.

Type: Tanker. MMSI: 431301714.

Date/timePositionNaut miles runAvg speedWind from/ knotsBaromVisibWave heightAir tempDewpointWater temp
2016-Sep-29 08:03N 35°09' E 140°27'611.4
2016-Sep-29 07:32N 35°13' E 140°32'45 3.7
2016-Sep-28 19:17N 35°58' E 140°44'44 6.2
2016-Sep-28 12:11N 35°15' E 140°33'42 4.9
2016-Sep-28 03:33N 35°32' E 139°45'0 0.0
2016-Sep-28 02:33N 35°32' E 139°45'0 0.0
2016-Sep-28 01:33N 35°32' E 139°45'0 0.0
2016-Sep-27 23:33N 35°32' E 139°45'4 1.0
2016-Sep-27 19:33N 35°29' E 139°49'12 2.4
2016-Sep-27 14:33N 35°18' E 139°45'1110.5
2016-Sep-27 13:33N 35°07' E 139°45'  
2016-Sep-24 03:33N 34°40' E 135°25'5 5.4
2016-Sep-24 02:33N 34°35' E 135°21'1212.2
2016-Sep-24 01:33N 34°26' E 135°11'1212.0
2016-Sep-24 00:33N 34°16' E 135°03'25 0.6
2016-Sep-22 04:34N 34°39' E 135°17'0 0.0
2016-Sep-22 03:33N 34°39' E 135°17'7 2.2
2016-Sep-22 00:34N 34°40' E 135°25'0 0.0
2016-Sep-21 23:34N 34°40' E 135°25'0 0.0
2016-Sep-21 22:34N 34°40' E 135°25'2 0.8
2016-Sep-21 19:33N 34°40' E 135°22'0 0.0
2016-Sep-21 16:33N 34°40' E 135°22'  
Track history (hours):
 
Tides and Currents Weather Stations Pressure Air Temp Water Temp Dewpoint Dewpoint Depression Visibility Wind Speed Wind Dir Waves Ship Positions

Kyokuho Maru No.15

Last reported at 2016-Sep-29 08:03 UTC. Time now 2016-Sep-29 10:12 UTC.
Position N 35°09' E 140°27'.

Length 63 m; draft 3.4 m.

Type: Tanker. MMSI: 431301714.

Date/timePositionNaut miles runAvg speedWind from/ knotsBaromVisibWave heightAir tempDewpointWater temp
2016-Sep-29 08:03N 35°09' E 140°27'611.4
2016-Sep-29 07:32N 35°13' E 140°32'45 3.7
2016-Sep-28 19:17N 35°58' E 140°44'44 6.2
2016-Sep-28 12:11N 35°15' E 140°33'42 4.9
2016-Sep-28 03:33N 35°32' E 139°45'0 0.0
2016-Sep-28 02:33N 35°32' E 139°45'0 0.0
2016-Sep-28 01:33N 35°32' E 139°45'0 0.0
2016-Sep-27 23:33N 35°32' E 139°45'4 1.0
2016-Sep-27 19:33N 35°29' E 139°49'12 2.4
2016-Sep-27 14:33N 35°18' E 139°45'1110.5
2016-Sep-27 13:33N 35°07' E 139°45'  
2016-Sep-24 03:33N 34°40' E 135°25'5 5.4
2016-Sep-24 02:33N 34°35' E 135°21'1212.2
2016-Sep-24 01:33N 34°26' E 135°11'1212.0
2016-Sep-24 00:33N 34°16' E 135°03'25 0.6
2016-Sep-22 04:34N 34°39' E 135°17'0 0.0
2016-Sep-22 03:33N 34°39' E 135°17'7 2.2
2016-Sep-22 00:34N 34°40' E 135°25'0 0.0
2016-Sep-21 23:34N 34°40' E 135°25'0 0.0
2016-Sep-21 22:34N 34°40' E 135°25'2 0.8
2016-Sep-21 19:33N 34°40' E 135°22'0 0.0
2016-Sep-21 16:33N 34°40' E 135°22'  

Dump ship's entire track history